sensor_id;sensor_type;location;lat;lon;timestamp;P1;durP1;ratioP1;P2;durP2;ratioP2
33413;SDS011;60055;41.884;12.534;2023-06-22T00:01:22;13.80;;;6.85;;
33413;SDS011;60055;41.884;12.534;2023-06-22T00:03:48;15.10;;;7.00;;
33413;SDS011;60055;41.884;12.534;2023-06-22T00:06:13;13.35;;;6.72;;
33413;SDS011;60055;41.884;12.534;2023-06-22T00:08:39;16.70;;;7.57;;
33413;SDS011;60055;41.884;12.534;2023-06-22T00:11:04;11.85;;;7.57;;
33413;SDS011;60055;41.884;12.534;2023-06-22T00:13:30;14.52;;;7.18;;
33413;SDS011;60055;41.884;12.534;2023-06-22T00:15:55;13.27;;;7.65;;
33413;SDS011;60055;41.884;12.534;2023-06-22T00:18:21;15.73;;;7.60;;
33413;SDS011;60055;41.884;12.534;2023-06-22T00:20:46;15.80;;;7.63;;
33413;SDS011;60055;41.884;12.534;2023-06-22T00:23:11;17.17;;;7.60;;
33413;SDS011;60055;41.884;12.534;2023-06-22T00:25:40;17.25;;;7.65;;
33413;SDS011;60055;41.884;12.534;2023-06-22T00:28:06;14.80;;;7.95;;
33413;SDS011;60055;41.884;12.534;2023-06-22T00:30:32;15.57;;;7.80;;
33413;SDS011;60055;41.884;12.534;2023-06-22T00:32:59;13.85;;;7.55;;
33413;SDS011;60055;41.884;12.534;2023-06-22T00:35:25;15.93;;;7.70;;
33413;SDS011;60055;41.884;12.534;2023-06-22T00:37:54;11.45;;;7.13;;
33413;SDS011;60055;41.884;12.534;2023-06-22T00:40:26;12.52;;;7.35;;
33413;SDS011;60055;41.884;12.534;2023-06-22T00:42:52;20.00;;;7.28;;
33413;SDS011;60055;41.884;12.534;2023-06-22T00:45:17;13.40;;;7.15;;
33413;SDS011;60055;41.884;12.534;2023-06-22T00:47:43;13.63;;;7.18;;
33413;SDS011;60055;41.884;12.534;2023-06-22T00:50:09;12.98;;;6.88;;
33413;SDS011;60055;41.884;12.534;2023-06-22T00:52:43;10.50;;;6.85;;
33413;SDS011;60055;41.884;12.534;2023-06-22T00:55:11;19.15;;;7.15;;
33413;SDS011;60055;41.884;12.534;2023-06-22T00:57:37;14.07;;;6.72;;
33413;SDS011;60055;41.884;12.534;2023-06-22T01:00:03;13.20;;;6.80;;
33413;SDS011;60055;41.884;12.534;2023-06-22T01:02:32;10.65;;;6.75;;
33413;SDS011;60055;41.884;12.534;2023-06-22T01:04:59;9.95;;;6.50;;
33413;SDS011;60055;41.884;12.534;2023-06-22T01:09:59;11.50;;;6.43;;
33413;SDS011;60055;41.884;12.534;2023-06-22T01:12:30;12.00;;;7.03;;
33413;SDS011;60055;41.884;12.534;2023-06-22T01:15:04;11.77;;;6.35;;
33413;SDS011;60055;41.884;12.534;2023-06-22T01:17:35;12.68;;;6.43;;
33413;SDS011;60055;41.884;12.534;2023-06-22T01:20:05;11.43;;;6.68;;
33413;SDS011;60055;41.884;12.534;2023-06-22T01:22:38;14.40;;;7.22;;
33413;SDS011;60055;41.884;12.534;2023-06-22T01:25:19;11.20;;;6.63;;
33413;SDS011;60055;41.884;12.534;2023-06-22T01:30:45;13.07;;;7.07;;
33413;SDS011;60055;41.884;12.534;2023-06-22T01:33:14;11.60;;;6.57;;
33413;SDS011;60055;41.884;12.534;2023-06-22T01:35:41;12.38;;;6.90;;
33413;SDS011;60055;41.884;12.534;2023-06-22T01:38:07;14.45;;;7.53;;
33413;SDS011;60055;41.884;12.534;2023-06-22T01:40:34;14.52;;;6.97;;
33413;SDS011;60055;41.884;12.534;2023-06-22T01:43:01;13.77;;;6.63;;
33413;SDS011;60055;41.884;12.534;2023-06-22T01:45:28;13.68;;;7.32;;
33413;SDS011;60055;41.884;12.534;2023-06-22T01:47:54;14.40;;;7.38;;
33413;SDS011;60055;41.884;12.534;2023-06-22T01:50:20;15.52;;;6.93;;
33413;SDS011;60055;41.884;12.534;2023-06-22T01:52:46;12.30;;;7.05;;
33413;SDS011;60055;41.884;12.534;2023-06-22T01:55:12;18.40;;;7.22;;
33413;SDS011;60055;41.884;12.534;2023-06-22T01:57:37;11.82;;;7.10;;
33413;SDS011;60055;41.884;12.534;2023-06-22T02:00:04;12.77;;;7.55;;
33413;SDS011;60055;41.884;12.534;2023-06-22T02:02:36;15.52;;;7.15;;
33413;SDS011;60055;41.884;12.534;2023-06-22T02:05:08;11.30;;;7.40;;
33413;SDS011;60055;41.884;12.534;2023-06-22T02:07:47;16.20;;;7.72;;
33413;SDS011;60055;41.884;12.534;2023-06-22T02:10:17;15.07;;;7.45;;
33413;SDS011;60055;41.884;12.534;2023-06-22T02:12:46;14.38;;;7.50;;
33413;SDS011;60055;41.884;12.534;2023-06-22T02:15:13;18.73;;;8.13;;
33413;SDS011;60055;41.884;12.534;2023-06-22T02:17:40;12.70;;;7.43;;
33413;SDS011;60055;41.884;12.534;2023-06-22T02:20:13;12.10;;;7.72;;
33413;SDS011;60055;41.884;12.534;2023-06-22T02:22:39;15.68;;;7.78;;
33413;SDS011;60055;41.884;12.534;2023-06-22T02:25:05;12.85;;;7.20;;
33413;SDS011;60055;41.884;12.534;2023-06-22T02:27:30;16.88;;;7.07;;
33413;SDS011;60055;41.884;12.534;2023-06-22T02:29:56;17.65;;;7.88;;
33413;SDS011;60055;41.884;12.534;2023-06-22T02:32:22;14.70;;;7.43;;
33413;SDS011;60055;41.884;12.534;2023-06-22T02:34:47;11.63;;;7.32;;
33413;SDS011;60055;41.884;12.534;2023-06-22T02:37:16;17.50;;;7.50;;
33413;SDS011;60055;41.884;12.534;2023-06-22T02:39:41;14.82;;;7.60;;
33413;SDS011;60055;41.884;12.534;2023-06-22T02:42:07;13.25;;;7.47;;
33413;SDS011;60055;41.884;12.534;2023-06-22T02:44:32;13.05;;;7.20;;
33413;SDS011;60055;41.884;12.534;2023-06-22T02:46:58;11.80;;;7.57;;
33413;SDS011;60055;41.884;12.534;2023-06-22T02:49:23;15.40;;;8.07;;
33413;SDS011;60055;41.884;12.534;2023-06-22T02:51:49;15.65;;;7.25;;
33413;SDS011;60055;41.884;12.534;2023-06-22T02:54:14;15.95;;;8.00;;
33413;SDS011;60055;41.884;12.534;2023-06-22T02:56:41;13.13;;;7.35;;
33413;SDS011;60055;41.884;12.534;2023-06-22T02:59:08;12.73;;;6.90;;
33413;SDS011;60055;41.884;12.534;2023-06-22T03:01:35;16.48;;;7.18;;
33413;SDS011;60055;41.884;12.534;2023-06-22T03:04:04;13.07;;;7.47;;
33413;SDS011;60055;41.884;12.534;2023-06-22T03:06:34;11.93;;;6.65;;
33413;SDS011;60055;41.884;12.534;2023-06-22T03:09:01;13.65;;;7.18;;
33413;SDS011;60055;41.884;12.534;2023-06-22T03:11:29;12.57;;;7.18;;
33413;SDS011;60055;41.884;12.534;2023-06-22T03:13:55;15.05;;;7.47;;
33413;SDS011;60055;41.884;12.534;2023-06-22T03:16:21;12.13;;;6.35;;
33413;SDS011;60055;41.884;12.534;2023-06-22T03:18:46;12.48;;;6.50;;
33413;SDS011;60055;41.884;12.534;2023-06-22T03:21:11;11.63;;;6.28;;
33413;SDS011;60055;41.884;12.534;2023-06-22T03:23:37;11.75;;;5.95;;
33413;SDS011;60055;41.884;12.534;2023-06-22T03:26:02;12.68;;;6.45;;
33413;SDS011;60055;41.884;12.534;2023-06-22T03:28:29;12.43;;;6.43;;
33413;SDS011;60055;41.884;12.534;2023-06-22T03:30:56;11.10;;;6.22;;
33413;SDS011;60055;41.884;12.534;2023-06-22T03:33:23;11.32;;;6.43;;
33413;SDS011;60055;41.884;12.534;2023-06-22T03:35:48;14.10;;;6.22;;
33413;SDS011;60055;41.884;12.534;2023-06-22T03:38:15;11.23;;;6.40;;
33413;SDS011;60055;41.884;12.534;2023-06-22T03:40:41;13.70;;;6.72;;
33413;SDS011;60055;41.884;12.534;2023-06-22T03:43:07;12.40;;;6.18;;
33413;SDS011;60055;41.884;12.534;2023-06-22T03:45:32;17.02;;;6.43;;
33413;SDS011;60055;41.884;12.534;2023-06-22T03:47:58;14.15;;;6.72;;
33413;SDS011;60055;41.884;12.534;2023-06-22T03:50:23;9.80;;;6.10;;
33413;SDS011;60055;41.884;12.534;2023-06-22T03:52:48;14.55;;;6.68;;
33413;SDS011;60055;41.884;12.534;2023-06-22T03:55:16;12.75;;;6.03;;
33413;SDS011;60055;41.884;12.534;2023-06-22T03:57:42;12.00;;;6.22;;
33413;SDS011;60055;41.884;12.534;2023-06-22T04:00:07;11.00;;;5.72;;
33413;SDS011;60055;41.884;12.534;2023-06-22T04:02:34;10.90;;;6.50;;
33413;SDS011;60055;41.884;12.534;2023-06-22T04:05:00;11.25;;;6.32;;
33413;SDS011;60055;41.884;12.534;2023-06-22T04:07:25;12.25;;;6.00;;
33413;SDS011;60055;41.884;12.534;2023-06-22T04:09:51;13.32;;;6.20;;
33413;SDS011;60055;41.884;12.534;2023-06-22T04:12:16;11.10;;;6.50;;
33413;SDS011;60055;41.884;12.534;2023-06-22T04:14:41;14.18;;;6.28;;
33413;SDS011;60055;41.884;12.534;2023-06-22T04:17:07;9.60;;;6.15;;
33413;SDS011;60055;41.884;12.534;2023-06-22T04:19:32;12.50;;;5.80;;
33413;SDS011;60055;41.884;12.534;2023-06-22T04:21:58;11.18;;;6.00;;
33413;SDS011;60055;41.884;12.534;2023-06-22T04:24:23;12.20;;;6.55;;
33413;SDS011;60055;41.884;12.534;2023-06-22T04:26:49;10.15;;;5.38;;
33413;SDS011;60055;41.884;12.534;2023-06-22T04:29:19;12.13;;;6.10;;
33413;SDS011;60055;41.884;12.534;2023-06-22T04:31:45;16.33;;;6.20;;
33413;SDS011;60055;41.884;12.534;2023-06-22T04:34:15;13.25;;;6.07;;
33413;SDS011;60055;41.884;12.534;2023-06-22T04:36:41;13.35;;;6.00;;
33413;SDS011;60055;41.884;12.534;2023-06-22T04:39:07;14.15;;;6.10;;
33413;SDS011;60055;41.884;12.534;2023-06-22T04:41:37;15.48;;;6.50;;
33413;SDS011;60055;41.884;12.534;2023-06-22T04:44:09;14.77;;;6.60;;
33413;SDS011;60055;41.884;12.534;2023-06-22T04:46:36;14.00;;;6.22;;
33413;SDS011;60055;41.884;12.534;2023-06-22T04:51:34;13.57;;;6.30;;
33413;SDS011;60055;41.884;12.534;2023-06-22T04:54:09;12.55;;;6.13;;
33413;SDS011;60055;41.884;12.534;2023-06-22T04:56:35;16.33;;;6.50;;
33413;SDS011;60055;41.884;12.534;2023-06-22T04:59:00;12.00;;;5.78;;
33413;SDS011;60055;41.884;12.534;2023-06-22T05:01:28;17.20;;;6.60;;
33413;SDS011;60055;41.884;12.534;2023-06-22T05:03:53;11.88;;;6.53;;
33413;SDS011;60055;41.884;12.534;2023-06-22T05:06:22;10.30;;;5.95;;
33413;SDS011;60055;41.884;12.534;2023-06-22T05:08:52;12.38;;;6.60;;
33413;SDS011;60055;41.884;12.534;2023-06-22T05:11:22;15.00;;;6.50;;
33413;SDS011;60055;41.884;12.534;2023-06-22T05:13:48;11.75;;;6.05;;
33413;SDS011;60055;41.884;12.534;2023-06-22T05:16:14;17.10;;;5.82;;
33413;SDS011;60055;41.884;12.534;2023-06-22T05:18:39;16.00;;;5.90;;
33413;SDS011;60055;41.884;12.534;2023-06-22T05:21:04;10.52;;;5.72;;
33413;SDS011;60055;41.884;12.534;2023-06-22T05:23:30;17.02;;;6.60;;
33413;SDS011;60055;41.884;12.534;2023-06-22T05:25:55;15.48;;;6.38;;
33413;SDS011;60055;41.884;12.534;2023-06-22T05:28:22;11.07;;;5.65;;
33413;SDS011;60055;41.884;12.534;2023-06-22T05:30:48;12.80;;;5.60;;
33413;SDS011;60055;41.884;12.534;2023-06-22T05:33:13;13.65;;;5.95;;
33413;SDS011;60055;41.884;12.534;2023-06-22T05:35:39;12.43;;;5.72;;
33413;SDS011;60055;41.884;12.534;2023-06-22T05:38:04;11.68;;;5.75;;
33413;SDS011;60055;41.884;12.534;2023-06-22T05:40:29;13.75;;;5.72;;
33413;SDS011;60055;41.884;12.534;2023-06-22T05:42:55;17.23;;;6.85;;
33413;SDS011;60055;41.884;12.534;2023-06-22T05:45:20;16.77;;;6.50;;
33413;SDS011;60055;41.884;12.534;2023-06-22T05:47:46;12.55;;;6.07;;
33413;SDS011;60055;41.884;12.534;2023-06-22T05:50:11;13.65;;;6.45;;
33413;SDS011;60055;41.884;12.534;2023-06-22T05:52:37;12.70;;;6.15;;
33413;SDS011;60055;41.884;12.534;2023-06-22T05:55:02;13.98;;;6.50;;
33413;SDS011;60055;41.884;12.534;2023-06-22T05:57:28;13.48;;;6.45;;
33413;SDS011;60055;41.884;12.534;2023-06-22T05:59:53;13.38;;;5.45;;
33413;SDS011;60055;41.884;12.534;2023-06-22T06:02:19;13.68;;;5.97;;
33413;SDS011;60055;41.884;12.534;2023-06-22T06:04:44;18.73;;;5.93;;
33413;SDS011;60055;41.884;12.534;2023-06-22T06:07:10;17.20;;;6.38;;
33413;SDS011;60055;41.884;12.534;2023-06-22T06:09:35;17.67;;;5.82;;
33413;SDS011;60055;41.884;12.534;2023-06-22T06:12:01;20.17;;;6.22;;
33413;SDS011;60055;41.884;12.534;2023-06-22T06:14:28;16.88;;;5.43;;
33413;SDS011;60055;41.884;12.534;2023-06-22T06:16:53;12.40;;;5.80;;
33413;SDS011;60055;41.884;12.534;2023-06-22T06:19:19;19.38;;;5.88;;
33413;SDS011;60055;41.884;12.534;2023-06-22T06:21:44;14.77;;;6.05;;
33413;SDS011;60055;41.884;12.534;2023-06-22T06:24:11;13.20;;;5.82;;
33413;SDS011;60055;41.884;12.534;2023-06-22T06:26:36;18.75;;;6.47;;
33413;SDS011;60055;41.884;12.534;2023-06-22T06:29:02;19.58;;;5.90;;
33413;SDS011;60055;41.884;12.534;2023-06-22T06:31:28;17.08;;;5.88;;
33413;SDS011;60055;41.884;12.534;2023-06-22T06:33:54;17.67;;;5.75;;
33413;SDS011;60055;41.884;12.534;2023-06-22T06:36:20;26.50;;;6.30;;
33413;SDS011;60055;41.884;12.534;2023-06-22T06:38:46;20.00;;;5.63;;
33413;SDS011;60055;41.884;12.534;2023-06-22T06:41:13;16.45;;;5.90;;
33413;SDS011;60055;41.884;12.534;2023-06-22T06:43:39;19.20;;;5.90;;
33413;SDS011;60055;41.884;12.534;2023-06-22T06:46:05;19.42;;;6.18;;
33413;SDS011;60055;41.884;12.534;2023-06-22T06:48:30;15.40;;;5.53;;
33413;SDS011;60055;41.884;12.534;2023-06-22T06:50:56;21.35;;;5.70;;
33413;SDS011;60055;41.884;12.534;2023-06-22T06:53:21;24.17;;;5.88;;
33413;SDS011;60055;41.884;12.534;2023-06-22T06:55:47;22.40;;;6.35;;
33413;SDS011;60055;41.884;12.534;2023-06-22T06:58:12;20.30;;;6.15;;
33413;SDS011;60055;41.884;12.534;2023-06-22T07:00:38;20.63;;;5.93;;
33413;SDS011;60055;41.884;12.534;2023-06-22T07:03:04;19.45;;;5.40;;
33413;SDS011;60055;41.884;12.534;2023-06-22T07:05:30;14.30;;;5.80;;
33413;SDS011;60055;41.884;12.534;2023-06-22T07:07:55;17.85;;;6.05;;
33413;SDS011;60055;41.884;12.534;2023-06-22T07:10:21;18.92;;;5.63;;
33413;SDS011;60055;41.884;12.534;2023-06-22T07:12:46;19.08;;;6.20;;
33413;SDS011;60055;41.884;12.534;2023-06-22T07:15:13;19.52;;;6.20;;
33413;SDS011;60055;41.884;12.534;2023-06-22T07:17:38;16.23;;;5.63;;
33413;SDS011;60055;41.884;12.534;2023-06-22T07:20:06;19.88;;;6.00;;
33413;SDS011;60055;41.884;12.534;2023-06-22T07:22:35;26.33;;;6.10;;
33413;SDS011;60055;41.884;12.534;2023-06-22T07:25:01;16.30;;;5.85;;
33413;SDS011;60055;41.884;12.534;2023-06-22T07:27:30;16.08;;;6.35;;
33413;SDS011;60055;41.884;12.534;2023-06-22T07:30:01;20.33;;;6.22;;
33413;SDS011;60055;41.884;12.534;2023-06-22T07:32:27;19.80;;;6.90;;
33413;SDS011;60055;41.884;12.534;2023-06-22T07:34:53;15.32;;;5.70;;
33413;SDS011;60055;41.884;12.534;2023-06-22T07:37:19;12.27;;;5.65;;
33413;SDS011;60055;41.884;12.534;2023-06-22T07:39:44;18.73;;;5.95;;
33413;SDS011;60055;41.884;12.534;2023-06-22T07:42:10;22.60;;;5.88;;
33413;SDS011;60055;41.884;12.534;2023-06-22T07:44:35;20.88;;;5.60;;
33413;SDS011;60055;41.884;12.534;2023-06-22T07:47:01;22.38;;;5.97;;
33413;SDS011;60055;41.884;12.534;2023-06-22T07:49:27;21.15;;;6.00;;
33413;SDS011;60055;41.884;12.534;2023-06-22T07:51:53;18.38;;;6.20;;
33413;SDS011;60055;41.884;12.534;2023-06-22T07:54:18;22.83;;;6.15;;
33413;SDS011;60055;41.884;12.534;2023-06-22T07:56:44;18.48;;;6.50;;
33413;SDS011;60055;41.884;12.534;2023-06-22T07:59:11;22.63;;;5.90;;
33413;SDS011;60055;41.884;12.534;2023-06-22T08:01:37;18.80;;;6.25;;
33413;SDS011;60055;41.884;12.534;2023-06-22T08:04:02;17.10;;;5.80;;
33413;SDS011;60055;41.884;12.534;2023-06-22T08:06:29;13.38;;;5.75;;
33413;SDS011;60055;41.884;12.534;2023-06-22T08:08:55;21.27;;;5.93;;
33413;SDS011;60055;41.884;12.534;2023-06-22T08:11:22;20.13;;;5.70;;
33413;SDS011;60055;41.884;12.534;2023-06-22T08:13:48;22.17;;;5.57;;
33413;SDS011;60055;41.884;12.534;2023-06-22T08:16:15;18.75;;;6.10;;
33413;SDS011;60055;41.884;12.534;2023-06-22T08:18:40;18.52;;;5.80;;
33413;SDS011;60055;41.884;12.534;2023-06-22T08:21:05;15.63;;;5.55;;
33413;SDS011;60055;41.884;12.534;2023-06-22T08:23:31;20.80;;;5.57;;
33413;SDS011;60055;41.884;12.534;2023-06-22T08:25:56;13.57;;;6.00;;
33413;SDS011;60055;41.884;12.534;2023-06-22T08:28:22;15.52;;;5.80;;
33413;SDS011;60055;41.884;12.534;2023-06-22T08:30:47;14.35;;;5.22;;
33413;SDS011;60055;41.884;12.534;2023-06-22T08:33:13;18.00;;;5.78;;
33413;SDS011;60055;41.884;12.534;2023-06-22T08:35:38;17.65;;;5.43;;
33413;SDS011;60055;41.884;12.534;2023-06-22T08:38:04;30.40;;;6.15;;
33413;SDS011;60055;41.884;12.534;2023-06-22T08:40:29;25.15;;;6.00;;
33413;SDS011;60055;41.884;12.534;2023-06-22T08:42:55;23.42;;;6.03;;
33413;SDS011;60055;41.884;12.534;2023-06-22T08:45:20;16.48;;;5.43;;
33413;SDS011;60055;41.884;12.534;2023-06-22T08:47:46;15.32;;;5.30;;
33413;SDS011;60055;41.884;12.534;2023-06-22T08:50:11;16.10;;;5.72;;
33413;SDS011;60055;41.884;12.534;2023-06-22T08:52:38;18.42;;;5.18;;
33413;SDS011;60055;41.884;12.534;2023-06-22T08:55:06;15.77;;;5.50;;
33413;SDS011;60055;41.884;12.534;2023-06-22T08:57:32;17.70;;;5.55;;
33413;SDS011;60055;41.884;12.534;2023-06-22T08:59:58;12.02;;;5.80;;
33413;SDS011;60055;41.884;12.534;2023-06-22T09:02:27;14.50;;;5.30;;
33413;SDS011;60055;41.884;12.534;2023-06-22T09:04:57;16.67;;;5.75;;
33413;SDS011;60055;41.884;12.534;2023-06-22T09:07:23;18.92;;;6.22;;
33413;SDS011;60055;41.884;12.534;2023-06-22T09:09:49;15.88;;;5.43;;
33413;SDS011;60055;41.884;12.534;2023-06-22T09:12:15;20.80;;;5.40;;
33413;SDS011;60055;41.884;12.534;2023-06-22T09:14:41;15.50;;;5.28;;
33413;SDS011;60055;41.884;12.534;2023-06-22T09:17:07;18.08;;;5.60;;
33413;SDS011;60055;41.884;12.534;2023-06-22T09:19:32;14.23;;;5.68;;
33413;SDS011;60055;41.884;12.534;2023-06-22T09:21:58;18.35;;;5.80;;
33413;SDS011;60055;41.884;12.534;2023-06-22T09:24:23;17.45;;;5.53;;
33413;SDS011;60055;41.884;12.534;2023-06-22T09:26:49;14.90;;;5.40;;
33413;SDS011;60055;41.884;12.534;2023-06-22T09:29:15;18.73;;;6.32;;
33413;SDS011;60055;41.884;12.534;2023-06-22T09:31:40;20.38;;;5.75;;
33413;SDS011;60055;41.884;12.534;2023-06-22T09:34:06;17.60;;;5.47;;
33413;SDS011;60055;41.884;12.534;2023-06-22T09:36:31;16.48;;;5.78;;
33413;SDS011;60055;41.884;12.534;2023-06-22T09:38:57;24.58;;;5.80;;
33413;SDS011;60055;41.884;12.534;2023-06-22T09:41:23;14.15;;;5.15;;
33413;SDS011;60055;41.884;12.534;2023-06-22T09:43:50;17.38;;;5.50;;
33413;SDS011;60055;41.884;12.534;2023-06-22T09:46:15;18.00;;;5.75;;
33413;SDS011;60055;41.884;12.534;2023-06-22T09:48:42;21.05;;;5.45;;
33413;SDS011;60055;41.884;12.534;2023-06-22T09:51:07;16.98;;;5.00;;
33413;SDS011;60055;41.884;12.534;2023-06-22T09:53:33;19.50;;;5.40;;
33413;SDS011;60055;41.884;12.534;2023-06-22T09:55:59;15.48;;;5.03;;
33413;SDS011;60055;41.884;12.534;2023-06-22T09:58:26;16.90;;;4.60;;
33413;SDS011;60055;41.884;12.534;2023-06-22T10:00:51;9.32;;;4.47;;
33413;SDS011;60055;41.884;12.534;2023-06-22T10:03:18;17.92;;;5.22;;
33413;SDS011;60055;41.884;12.534;2023-06-22T10:05:43;11.48;;;4.75;;
33413;SDS011;60055;41.884;12.534;2023-06-22T10:08:08;12.55;;;4.63;;
33413;SDS011;60055;41.884;12.534;2023-06-22T10:10:35;13.63;;;5.38;;
33413;SDS011;60055;41.884;12.534;2023-06-22T10:13:02;11.23;;;4.35;;
33413;SDS011;60055;41.884;12.534;2023-06-22T10:15:35;9.88;;;4.00;;
33413;SDS011;60055;41.884;12.534;2023-06-22T10:18:01;18.58;;;4.20;;
33413;SDS011;60055;41.884;12.534;2023-06-22T10:20:26;14.05;;;4.00;;
33413;SDS011;60055;41.884;12.534;2023-06-22T10:22:53;13.02;;;4.53;;
33413;SDS011;60055;41.884;12.534;2023-06-22T10:25:19;29.25;;;4.60;;
33413;SDS011;60055;41.884;12.534;2023-06-22T10:27:44;20.30;;;5.03;;
33413;SDS011;60055;41.884;12.534;2023-06-22T10:30:10;14.40;;;4.10;;
33413;SDS011;60055;41.884;12.534;2023-06-22T10:32:37;11.85;;;4.20;;
33413;SDS011;60055;41.884;12.534;2023-06-22T10:35:04;11.68;;;4.15;;
33413;SDS011;60055;41.884;12.534;2023-06-22T10:37:29;13.20;;;4.55;;
33413;SDS011;60055;41.884;12.534;2023-06-22T10:39:55;16.15;;;4.90;;
33413;SDS011;60055;41.884;12.534;2023-06-22T10:42:20;16.05;;;4.57;;
33413;SDS011;60055;41.884;12.534;2023-06-22T10:44:46;8.98;;;4.13;;
33413;SDS011;60055;41.884;12.534;2023-06-22T10:47:11;10.70;;;3.80;;
33413;SDS011;60055;41.884;12.534;2023-06-22T10:49:38;11.55;;;3.90;;
33413;SDS011;60055;41.884;12.534;2023-06-22T10:52:04;8.93;;;3.72;;
33413;SDS011;60055;41.884;12.534;2023-06-22T10:54:32;11.70;;;3.60;;
33413;SDS011;60055;41.884;12.534;2023-06-22T10:56:58;10.68;;;3.78;;
33413;SDS011;60055;41.884;12.534;2023-06-22T10:59:24;8.43;;;3.50;;
33413;SDS011;60055;41.884;12.534;2023-06-22T11:01:51;15.07;;;3.70;;
33413;SDS011;60055;41.884;12.534;2023-06-22T11:04:16;15.07;;;3.40;;
33413;SDS011;60055;41.884;12.534;2023-06-22T11:06:42;12.60;;;3.40;;
33413;SDS011;60055;41.884;12.534;2023-06-22T11:09:08;7.30;;;3.17;;
33413;SDS011;60055;41.884;12.534;2023-06-22T11:11:34;9.35;;;3.28;;
33413;SDS011;60055;41.884;12.534;2023-06-22T11:13:59;8.65;;;3.10;;
33413;SDS011;60055;41.884;12.534;2023-06-22T11:16:25;8.45;;;2.42;;
33413;SDS011;60055;41.884;12.534;2023-06-22T11:18:50;5.22;;;2.72;;
33413;SDS011;60055;41.884;12.534;2023-06-22T11:21:15;13.27;;;3.50;;
33413;SDS011;60055;41.884;12.534;2023-06-22T11:23:41;12.60;;;2.78;;
33413;SDS011;60055;41.884;12.534;2023-06-22T11:26:07;7.78;;;2.90;;
33413;SDS011;60055;41.884;12.534;2023-06-22T11:28:33;8.73;;;3.47;;
33413;SDS011;60055;41.884;12.534;2023-06-22T11:30:58;9.75;;;3.55;;
33413;SDS011;60055;41.884;12.534;2023-06-22T11:33:24;7.82;;;3.60;;
33413;SDS011;60055;41.884;12.534;2023-06-22T11:35:49;12.98;;;3.85;;
33413;SDS011;60055;41.884;12.534;2023-06-22T11:38:15;9.30;;;3.55;;
33413;SDS011;60055;41.884;12.534;2023-06-22T11:40:40;13.90;;;3.90;;
33413;SDS011;60055;41.884;12.534;2023-06-22T11:43:06;8.15;;;2.55;;
33413;SDS011;60055;41.884;12.534;2023-06-22T11:45:31;7.85;;;2.40;;
33413;SDS011;60055;41.884;12.534;2023-06-22T11:47:56;5.78;;;2.22;;
33413;SDS011;60055;41.884;12.534;2023-06-22T11:50:22;6.60;;;1.90;;
33413;SDS011;60055;41.884;12.534;2023-06-22T11:52:47;7.28;;;2.13;;
33413;SDS011;60055;41.884;12.534;2023-06-22T11:55:13;6.32;;;2.30;;
33413;SDS011;60055;41.884;12.534;2023-06-22T11:57:39;7.80;;;1.90;;
33413;SDS011;60055;41.884;12.534;2023-06-22T12:00:18;6.13;;;2.28;;
33413;SDS011;60055;41.884;12.534;2023-06-22T12:02:44;6.95;;;2.75;;
33413;SDS011;60055;41.884;12.534;2023-06-22T12:05:13;8.65;;;3.72;;
33413;SDS011;60055;41.884;12.534;2023-06-22T12:07:38;7.65;;;3.38;;
33413;SDS011;60055;41.884;12.534;2023-06-22T12:10:04;16.58;;;3.50;;
33413;SDS011;60055;41.884;12.534;2023-06-22T12:12:30;7.03;;;3.42;;
33413;SDS011;60055;41.884;12.534;2023-06-22T12:14:55;9.60;;;3.10;;
33413;SDS011;60055;41.884;12.534;2023-06-22T12:17:21;9.98;;;3.13;;
33413;SDS011;60055;41.884;12.534;2023-06-22T12:19:46;12.52;;;3.50;;
33413;SDS011;60055;41.884;12.534;2023-06-22T12:22:11;14.55;;;3.60;;
33413;SDS011;60055;41.884;12.534;2023-06-22T12:24:37;8.27;;;3.60;;
33413;SDS011;60055;41.884;12.534;2023-06-22T12:27:02;13.00;;;4.43;;
33413;SDS011;60055;41.884;12.534;2023-06-22T12:29:28;12.07;;;3.90;;
33413;SDS011;60055;41.884;12.534;2023-06-22T12:31:54;13.77;;;5.25;;
33413;SDS011;60055;41.884;12.534;2023-06-22T12:34:19;14.38;;;5.30;;
33413;SDS011;60055;41.884;12.534;2023-06-22T12:36:45;11.85;;;5.35;;
33413;SDS011;60055;41.884;12.534;2023-06-22T12:39:12;15.13;;;4.93;;
33413;SDS011;60055;41.884;12.534;2023-06-22T12:41:37;15.30;;;5.28;;
33413;SDS011;60055;41.884;12.534;2023-06-22T12:44:03;9.23;;;4.82;;
33413;SDS011;60055;41.884;12.534;2023-06-22T12:46:28;11.98;;;5.45;;
33413;SDS011;60055;41.884;12.534;2023-06-22T12:48:55;17.02;;;4.90;;
33413;SDS011;60055;41.884;12.534;2023-06-22T12:51:21;9.63;;;4.97;;
33413;SDS011;60055;41.884;12.534;2023-06-22T12:53:47;12.25;;;4.72;;
33413;SDS011;60055;41.884;12.534;2023-06-22T12:56:13;9.90;;;4.68;;
33413;SDS011;60055;41.884;12.534;2023-06-22T12:58:38;8.77;;;4.40;;
33413;SDS011;60055;41.884;12.534;2023-06-22T13:01:03;15.25;;;5.40;;
33413;SDS011;60055;41.884;12.534;2023-06-22T13:03:29;7.38;;;5.25;;
33413;SDS011;60055;41.884;12.534;2023-06-22T13:05:54;10.07;;;4.88;;
33413;SDS011;60055;41.884;12.534;2023-06-22T13:08:20;10.10;;;4.90;;
33413;SDS011;60055;41.884;12.534;2023-06-22T13:10:45;10.48;;;4.88;;
33413;SDS011;60055;41.884;12.534;2023-06-22T13:13:11;8.15;;;5.03;;
33413;SDS011;60055;41.884;12.534;2023-06-22T13:15:36;10.25;;;5.00;;
33413;SDS011;60055;41.884;12.534;2023-06-22T13:18:02;8.55;;;5.18;;
33413;SDS011;60055;41.884;12.534;2023-06-22T13:20:28;12.07;;;5.10;;
33413;SDS011;60055;41.884;12.534;2023-06-22T13:22:54;11.40;;;4.70;;
33413;SDS011;60055;41.884;12.534;2023-06-22T13:25:21;10.40;;;4.90;;
33413;SDS011;60055;41.884;12.534;2023-06-22T13:27:48;10.48;;;4.40;;
33413;SDS011;60055;41.884;12.534;2023-06-22T13:30:14;8.00;;;4.60;;
33413;SDS011;60055;41.884;12.534;2023-06-22T13:32:40;8.85;;;4.20;;
33413;SDS011;60055;41.884;12.534;2023-06-22T13:35:09;9.68;;;3.92;;
33413;SDS011;60055;41.884;12.534;2023-06-22T13:37:35;9.30;;;4.18;;
33413;SDS011;60055;41.884;12.534;2023-06-22T13:40:00;8.18;;;4.07;;
33413;SDS011;60055;41.884;12.534;2023-06-22T13:42:28;9.68;;;4.60;;
33413;SDS011;60055;41.884;12.534;2023-06-22T13:44:53;6.90;;;4.00;;
33413;SDS011;60055;41.884;12.534;2023-06-22T13:47:19;9.57;;;4.07;;
33413;SDS011;60055;41.884;12.534;2023-06-22T13:49:44;6.45;;;3.70;;
33413;SDS011;60055;41.884;12.534;2023-06-22T13:52:10;9.57;;;3.70;;
33413;SDS011;60055;41.884;12.534;2023-06-22T13:54:37;11.65;;;3.92;;
33413;SDS011;60055;41.884;12.534;2023-06-22T13:57:03;13.50;;;4.05;;
33413;SDS011;60055;41.884;12.534;2023-06-22T13:59:29;8.48;;;3.95;;
33413;SDS011;60055;41.884;12.534;2023-06-22T14:01:54;7.70;;;3.95;;
33413;SDS011;60055;41.884;12.534;2023-06-22T14:04:21;11.07;;;4.28;;
33413;SDS011;60055;41.884;12.534;2023-06-22T14:06:47;8.13;;;3.90;;
33413;SDS011;60055;41.884;12.534;2023-06-22T14:09:13;7.00;;;3.95;;
33413;SDS011;60055;41.884;12.534;2023-06-22T14:11:38;5.18;;;3.33;;
33413;SDS011;60055;41.884;12.534;2023-06-22T14:14:03;12.93;;;3.95;;
33413;SDS011;60055;41.884;12.534;2023-06-22T14:16:29;7.32;;;3.95;;
33413;SDS011;60055;41.884;12.534;2023-06-22T14:18:54;11.98;;;4.10;;
33413;SDS011;60055;41.884;12.534;2023-06-22T14:21:20;10.57;;;3.47;;
33413;SDS011;60055;41.884;12.534;2023-06-22T14:23:45;10.80;;;3.72;;
33413;SDS011;60055;41.884;12.534;2023-06-22T14:26:17;7.85;;;3.92;;